Time;durP1;ratioP1;P1;durP2;ratioP2;P2;SDS_P1;SDS_P2;PMS_P1;PMS_P2;Temp;Humidity;BMP_temperature;BMP_pressure;BME280_temperature;BME280_humidity;BME280_pressure;Samples;Min_cycle;Max_cycle;Signal;HPM_P1;HPM_P2
2022/10/20 00:01:11;;;;;;;0.00;0.00;;;;;;;12.13;100.00;100085.13;4964573;28;20477;-42
2022/10/20 00:03:38;;;;;;;0.25;0.25;;;;;;;12.15;100.00;100087.53;4979118;28;20054;-43
2022/10/20 00:06:20;;;;;;;0.00;0.00;;;;;;;12.14;100.00;100089.50;4980744;28;20046;-50
2022/10/20 00:08:49;;;;;;;0.00;0.00;;;;;;;12.14;100.00;100083.16;4970776;28;20046;-44
2022/10/20 00:11:19;;;;;;;0.00;0.00;;;;;;;12.13;100.00;100071.25;4974957;28;20054;-42
2022/10/20 00:13:48;;;;;;;0.10;0.10;;;;;;;12.14;100.00;100072.06;4975175;28;20401;-42
2022/10/20 00:16:15;;;;;;;0.00;0.00;;;;;;;12.13;100.00;100065.69;4979429;28;20456;-42
2022/10/20 00:18:42;;;;;;;0.00;0.00;;;;;;;12.15;100.00;100062.56;4966831;28;20058;-43
2022/10/20 00:21:18;;;;;;;0.00;0.00;;;;;;;12.16;100.00;100064.97;4953032;28;20073;-43
2022/10/20 00:23:44;;;;;;;0.00;0.00;;;;;;;12.17;100.00;100057.44;4954133;28;20065;-47
2022/10/20 00:26:14;;;;;;;0.00;0.00;;;;;;;12.19;100.00;100063.41;4964303;28;20054;-43
2022/10/20 00:28:42;;;;;;;0.00;0.00;;;;;;;12.21;100.00;100064.63;4955787;28;20519;-46
2022/10/20 00:31:10;;;;;;;0.00;0.00;;;;;;;12.23;100.00;100064.28;4954604;28;20073;-42
2022/10/20 00:33:36;;;;;;;0.65;0.45;;;;;;;12.26;100.00;100066.28;4961499;28;20042;-42
2022/10/20 00:36:06;;;;;;;0.00;0.00;;;;;;;12.27;100.00;100058.78;4964153;28;20065;-43
2022/10/20 00:38:34;;;;;;;0.22;0.22;;;;;;;12.29;100.00;100064.75;4981524;28;20512;-42
2022/10/20 00:41:02;;;;;;;0.45;0.45;;;;;;;12.29;100.00;100056.41;4973152;28;20046;-42
2022/10/20 00:43:47;;;;;;;0.00;0.00;;;;;;;12.31;100.00;100063.19;4966607;28;20050;-44
2022/10/20 00:46:18;;;;;;;0.00;0.00;;;;;;;12.32;100.00;100067.59;4962666;28;20042;-45
2022/10/20 00:48:49;;;;;;;0.00;0.00;;;;;;;12.33;100.00;100060.88;4954794;28;20050;-43
2022/10/20 00:51:18;;;;;;;0.10;0.10;;;;;;;12.34;100.00;100050.56;4951426;28;20493;-44
2022/10/20 00:53:48;;;;;;;0.10;0.10;;;;;;;12.36;100.00;100053.78;4980382;28;20046;-43
2022/10/20 00:56:15;;;;;;;0.00;0.00;;;;;;;12.38;100.00;100054.19;4982829;28;20042;-43
2022/10/20 00:58:42;;;;;;;0.00;0.00;;;;;;;12.39;100.00;100056.56;4971357;28;20039;-42
2022/10/20 01:01:11;;;;;;;0.32;0.13;;;;;;;12.42;100.00;100060.56;4962910;28;20042;-43
2022/10/20 01:03:46;;;;;;;0.00;0.00;;;;;;;12.42;100.00;100050.28;4981346;28;20054;-41
2022/10/20 01:06:16;;;;;;;0.00;0.00;;;;;;;12.44;100.00;100053.50;4975343;28;20073;-43
2022/10/20 01:08:51;;;;;;;0.05;0.05;;;;;;;12.43;100.00;100040.78;4974219;28;20401;-43
2022/10/20 01:11:24;;;;;;;0.05;0.05;;;;;;;12.44;100.00;100047.94;4969639;28;20062;-42
2022/10/20 01:14:02;;;;;;;0.00;0.00;;;;;;;12.44;100.00;100047.94;4969525;28;20030;-41
2022/10/20 01:16:44;;;;;;;0.00;0.00;;;;;;;12.46;100.00;100045.59;4968418;28;20058;-42
2022/10/20 01:19:52;;;;;;;2.42;0.55;;;;;;;12.47;100.00;100044.41;4950654;28;20767;-43
2022/10/20 01:22:30;;;;;;;0.00;0.00;;;;;;;12.48;100.00;100037.69;4951598;28;20062;-47
2022/10/20 01:25:17;;;;;;;0.00;0.00;;;;;;;12.49;100.00;100033.75;4951153;28;20042;-46
2022/10/20 01:27:47;;;;;;;0.00;0.00;;;;;;;12.50;100.00;100024.22;4951554;28;20059;-46
2022/10/20 01:30:21;;;;;;;0.00;0.00;;;;;;;12.52;100.00;100021.88;4951842;28;20488;-46
2022/10/20 01:33:16;;;;;;;0.00;0.00;;;;;;;12.52;100.00;100015.53;4966287;28;20047;-43
2022/10/20 01:36:17;;;;;;;0.00;0.00;;;;;;;12.53;100.00;100023.47;4979768;28;20047;-45
2022/10/20 01:39:21;;;;;;;0.00;0.00;;;;;;;12.54;100.00;100019.53;4979162;28;20397;-43
2022/10/20 01:42:04;;;;;;;1.35;0.80;;;;;;;12.54;100.00;100016.75;4961246;28;20051;-43
2022/10/20 01:44:35;;;;;;;0.00;0.00;;;;;;;12.58;100.00;100009.25;4969010;28;20058;-48
2022/10/20 01:47:02;;;;;;;0.00;0.00;;;;;;;12.58;100.00;100009.25;4968959;28;20051;-45
2022/10/20 01:49:29;;;;;;;0.10;0.10;;;;;;;12.60;100.00;100012.47;4969046;28;20055;-45
2022/10/20 01:51:56;;;;;;;0.10;0.10;;;;;;;12.62;100.00;99989.88;4969068;28;20047;-47
2022/10/20 01:54:25;;;;;;;0.00;0.00;;;;;;;12.62;100.00;99987.91;4981253;28;20050;-42
2022/10/20 01:56:58;;;;;;;0.00;0.00;;;;;;;12.63;100.00;100000.59;4977976;28;20047;-42
2022/10/20 01:59:57;;;;;;;0.00;0.00;;;;;;;12.63;100.00;99995.03;4965017;28;20050;-42
2022/10/20 02:02:35;;;;;;;1.00;0.32;;;;;;;12.64;100.00;99999.44;4977730;28;20055;-43
2022/10/20 02:05:21;;;;;;;0.17;0.17;;;;;;;12.66;100.00;99999.03;4972322;28;20057;-43
2022/10/20 02:07:49;;;;;;;0.03;0.03;;;;;;;12.66;100.00;99993.50;4985445;28;20061;-42
2022/10/20 02:10:26;;;;;;;0.00;0.00;;;;;;;12.66;100.00;99990.72;4974037;28;20076;-42
2022/10/20 02:12:59;;;;;;;0.00;0.00;;;;;;;12.67;100.00;99997.88;4976097;28;20150;-42
2022/10/20 02:15:29;;;;;;;0.00;0.00;;;;;;;12.68;100.00;99993.94;4968985;28;20035;-42
2022/10/20 02:18:03;;;;;;;0.22;0.22;;;;;;;12.67;100.00;99990.34;4969033;28;20854;-43
2022/10/20 02:20:32;;;;;;;0.00;0.00;;;;;;;12.68;100.00;100000.25;4986133;28;20105;-42
2022/10/20 02:23:01;;;;;;;0.30;0.30;;;;;;;12.69;100.00;100003.84;4980142;28;20058;-42
2022/10/20 02:25:29;;;;;;;0.00;0.00;;;;;;;12.69;100.00;99999.09;4982003;28;20467;-42
2022/10/20 02:27:57;;;;;;;0.00;0.00;;;;;;;12.69;100.00;99999.09;4975972;28;20554;-48
2022/10/20 02:30:30;;;;;;;0.30;0.30;;;;;;;12.70;100.00;99983.25;4954299;28;20057;-45
2022/10/20 02:32:56;;;;;;;0.10;0.10;;;;;;;12.70;100.00;99983.25;4976750;28;20587;-45
2022/10/20 02:35:29;;;;;;;0.00;0.00;;;;;;;12.70;100.00;99972.94;4956263;28;20050;-44
2022/10/20 02:37:56;;;;;;;0.00;0.00;;;;;;;12.70;100.00;99972.94;4980069;28;20057;-42
2022/10/20 02:40:23;;;;;;;0.00;0.00;;;;;;;12.69;100.00;99976.88;4959685;28;20050;-41
2022/10/20 02:42:50;;;;;;;0.00;0.00;;;;;;;12.69;100.00;99982.44;4966182;28;20420;-46
2022/10/20 02:45:17;;;;;;;0.70;0.70;;;;;;;12.68;100.00;99971.72;4969076;28;20089;-44
2022/10/20 02:47:44;;;;;;;0.47;0.47;;;;;;;12.68;100.00;99968.94;4966888;28;20049;-42
2022/10/20 02:50:11;;;;;;;2.33;0.55;;;;;;;12.68;100.00;99969.72;4968499;28;20051;-43
2022/10/20 02:52:39;;;;;;;0.00;0.00;;;;;;;12.68;100.00;99969.72;4968140;28;20051;-42
2022/10/20 02:55:06;;;;;;;0.43;0.43;;;;;;;12.66;100.00;99966.53;4965839;28;20556;-42
2022/10/20 02:57:33;;;;;;;0.10;0.10;;;;;;;12.63;100.00;99960.91;4975090;28;20153;-42
2022/10/20 03:00:00;;;;;;;0.00;0.00;;;;;;;12.60;100.00;99962.47;4969535;28;20050;-43
2022/10/20 03:02:27;;;;;;;0.00;0.00;;;;;;;12.55;100.00;99953.69;5044779;23;20069;-41
2022/10/20 03:04:53;;;;;;;0.20;0.20;;;;;;;12.51;100.00;99950.06;5026052;28;20142;-44
2022/10/20 03:07:20;;;;;;;4.18;2.17;;;;;;;12.47;100.00;99941.69;5016340;28;20398;-43
2022/10/20 03:09:50;;;;;;;0.00;0.00;;;;;;;12.45;100.00;99949.59;5030726;28;20107;-41
2022/10/20 03:12:17;;;;;;;0.43;0.43;;;;;;;12.42;100.00;99950.34;5031914;28;20446;-42
2022/10/20 03:14:44;;;;;;;0.00;0.00;;;;;;;12.39;100.00;99956.66;5031559;28;20140;-42
2022/10/20 03:17:10;;;;;;;0.00;0.00;;;;;;;12.37;100.00;99947.91;5031949;28;20041;-45
2022/10/20 03:19:38;;;;;;;0.00;0.00;;;;;;;12.36;100.00;99943.53;4994122;28;20071;-43
2022/10/20 03:22:04;;;;;;;0.10;0.10;;;;;;;12.38;100.00;99948.72;4988928;28;20061;-45
2022/10/20 03:24:31;;;;;;;0.00;0.00;;;;;;;12.39;100.00;99955.88;5002140;28;20121;-43
2022/10/20 03:26:58;;;;;;;0.00;0.00;;;;;;;12.41;100.00;99945.97;4990635;28;20177;-45
2022/10/20 03:29:24;;;;;;;0.00;0.00;;;;;;;12.42;100.00;99953.13;4985475;28;20061;-44
2022/10/20 03:31:51;;;;;;;0.03;0.03;;;;;;;12.46;100.00;99944.84;4987172;28;20054;-43
2022/10/20 03:34:18;;;;;;;0.05;0.05;;;;;;;12.48;100.00;99943.28;4985552;28;20133;-47
2022/10/20 03:36:44;;;;;;;0.00;0.00;;;;;;;12.49;100.00;99941.31;4985826;28;20491;-45
2022/10/20 03:39:11;;;;;;;0.10;0.10;;;;;;;12.48;100.00;99948.84;4969817;28;20049;-43
2022/10/20 03:41:38;;;;;;;0.32;0.20;;;;;;;12.49;100.00;99958.78;4986276;28;20499;-48
2022/10/20 03:44:04;;;;;;;0.00;0.00;;;;;;;12.49;100.00;99957.97;4992772;28;20042;-42
2022/10/20 03:46:31;;;;;;;0.20;0.20;;;;;;;12.47;100.00;99960.34;5023002;28;20050;-42
2022/10/20 03:48:58;;;;;;;0.00;0.00;;;;;;;12.45;100.00;99959.91;5031351;28;20463;-41
2022/10/20 03:51:25;;;;;;;0.00;0.00;;;;;;;12.43;100.00;99951.97;5030666;28;20124;-42
2022/10/20 03:53:51;;;;;;;0.38;0.38;;;;;;;12.42;100.00;99950.34;5024093;28;20545;-41
2022/10/20 03:56:19;;;;;;;0.00;0.00;;;;;;;12.41;100.00;99950.72;5030490;28;20057;-41
2022/10/20 03:58:47;;;;;;;0.00;0.00;;;;;;;12.38;100.00;99955.06;5021939;28;20050;-42
2022/10/20 04:01:16;;;;;;;0.10;0.10;;;;;;;12.36;100.00;99962.16;5012614;28;20045;-41
2022/10/20 04:03:43;;;;;;;0.03;0.03;;;;;;;12.32;100.00;99948.22;5030517;28;20163;-40
2022/10/20 04:06:14;;;;;;;0.00;0.00;;;;;;;12.28;100.00;99955.72;5030443;28;20509;-41
2022/10/20 04:08:40;;;;;;;0.00;0.00;;;;;;;12.23;100.00;99959.59;5016721;28;20068;-49
2022/10/20 04:11:08;;;;;;;0.00;0.00;;;;;;;12.19;100.00;99942.13;5022430;28;20151;-42
2022/10/20 04:13:34;;;;;;;0.17;0.15;;;;;;;12.15;100.00;99951.56;4985316;28;21816;-43
2022/10/20 04:16:01;;;;;;;0.30;0.30;;;;;;;12.12;100.00;99946.78;4985202;28;20058;-43
2022/10/20 04:18:28;;;;;;;0.00;0.00;;;;;;;12.09;100.00;99947.50;4985945;28;20057;-44
2022/10/20 04:20:54;;;;;;;0.00;0.00;;;;;;;12.05;100.00;99949.41;4986034;28;21547;-44
2022/10/20 04:23:21;;;;;;;0.00;0.00;;;;;;;11.99;100.00;99950.94;4984448;28;20058;-43
2022/10/20 04:25:48;;;;;;;0.00;0.00;;;;;;;11.95;100.00;99950.06;4984669;28;20049;-44
2022/10/20 04:28:16;;;;;;;0.00;0.00;;;;;;;11.92;100.00;99951.63;4990474;28;20061;-43
2022/10/20 04:30:43;;;;;;;0.00;0.00;;;;;;;11.89;100.00;99960.69;4984777;28;20053;-43
2022/10/20 04:33:10;;;;;;;0.00;0.00;;;;;;;11.86;100.00;99958.66;4984340;28;20816;-43
2022/10/20 04:35:37;;;;;;;0.20;0.20;;;;;;;11.84;100.00;99963.78;4984497;28;20050;-42
2022/10/20 04:38:05;;;;;;;0.00;0.00;;;;;;;11.84;100.00;99969.31;4984470;28;20042;-43
2022/10/20 04:40:32;;;;;;;0.00;0.00;;;;;;;11.84;100.00;99974.88;4985189;28;20068;-43
2022/10/20 04:42:59;;;;;;;0.13;0.13;;;;;;;11.85;100.00;99972.91;4987220;28;20048;-44
2022/10/20 04:45:27;;;;;;;0.00;0.00;;;;;;;11.84;100.00;99957.44;4987219;28;20050;-43
2022/10/20 04:47:53;;;;;;;0.00;0.00;;;;;;;11.84;100.00;99946.34;4984368;28;22072;-43
2022/10/20 04:50:20;;;;;;;0.00;0.00;;;;;;;11.84;100.00;99935.25;4984608;28;20495;-42
2022/10/20 04:52:47;;;;;;;0.00;0.00;;;;;;;11.82;100.00;99926.50;4987863;28;20041;-47
2022/10/20 04:55:14;;;;;;;0.00;0.00;;;;;;;11.80;100.00;99926.06;4984569;28;21247;-45
2022/10/20 04:57:40;;;;;;;0.00;0.00;;;;;;;11.79;100.00;99921.69;4983937;28;20042;-43
2022/10/20 05:00:07;;;;;;;0.00;0.00;;;;;;;11.75;100.00;99918.88;4992305;28;20123;-40
2022/10/20 05:02:34;;;;;;;0.00;0.00;;;;;;;11.73;100.00;99917.66;4992676;28;20054;-44
2022/10/20 05:05:01;;;;;;;1.45;0.70;;;;;;;11.70;100.00;99918.41;5008294;28;20088;-40
2022/10/20 05:07:31;;;;;;;0.00;0.00;;;;;;;11.67;100.00;99919.91;5030008;28;20042;-41
2022/10/20 05:09:57;;;;;;;0.00;0.00;;;;;;;11.63;100.00;99922.63;5015394;28;21540;-42
2022/10/20 05:12:24;;;;;;;0.00;0.00;;;;;;;11.58;100.00;99920.16;4983975;28;20046;-46
2022/10/20 05:14:50;;;;;;;0.00;0.00;;;;;;;11.54;100.00;99927.63;4988790;28;20781;-43
2022/10/20 05:17:17;;;;;;;0.00;0.00;;;;;;;11.49;100.00;99925.16;4996970;28;20423;-40
2022/10/20 05:19:44;;;;;;;0.00;0.00;;;;;;;11.41;100.00;99928.97;5029068;28;20141;-41
2022/10/20 05:22:11;;;;;;;0.00;0.00;;;;;;;11.36;100.00;99925.72;4998249;28;20060;-42
2022/10/20 05:24:38;;;;;;;0.00;0.00;;;;;;;11.34;100.00;99923.34;4987695;28;20041;-46
2022/10/20 05:27:04;;;;;;;0.00;0.00;;;;;;;11.36;100.00;99920.19;4984451;28;20045;-43
2022/10/20 05:29:31;;;;;;;0.00;0.00;;;;;;;11.37;100.00;99922.59;4986442;28;20571;-41
2022/10/20 05:31:57;;;;;;;0.00;0.00;;;;;;;11.39;100.00;99919.44;5024146;28;20533;-40
2022/10/20 05:34:24;;;;;;;0.00;0.00;;;;;;;11.39;100.00;99920.25;5026473;28;20037;-46
2022/10/20 05:36:53;;;;;;;0.00;0.00;;;;;;;11.39;100.00;99916.66;5029060;28;20053;-48
2022/10/20 05:39:20;;;;;;;0.00;0.00;;;;;;;11.38;100.00;99917.84;5029045;28;20481;-45
2022/10/20 05:41:46;;;;;;;0.00;0.00;;;;;;;11.36;100.00;99920.19;5028906;28;20052;-42
2022/10/20 05:44:13;;;;;;;0.00;0.00;;;;;;;11.33;100.00;99905.09;5028604;28;20045;-41
2022/10/20 05:46:41;;;;;;;0.00;0.00;;;;;;;11.31;100.00;99924.06;5022812;28;20045;-42
2022/10/20 05:49:16;;;;;;;0.00;0.00;;;;;;;11.28;100.00;99915.72;4984998;28;20060;-44
2022/10/20 05:51:44;;;;;;;0.00;0.00;;;;;;;11.22;100.00;99912.44;5004936;28;20065;-40
2022/10/20 05:54:12;;;;;;;0.00;0.00;;;;;;;11.16;100.00;99922.22;5028829;28;20053;-40
2022/10/20 05:56:39;;;;;;;0.00;0.00;;;;;;;11.05;100.00;99914.88;5015854;28;20052;-43
2022/10/20 05:59:06;;;;;;;0.00;0.00;;;;;;;11.02;100.00;99916.41;4983553;28;20042;-43
2022/10/20 06:01:46;;;;;;;0.00;0.00;;;;;;;10.91;100.00;99920.97;4983335;28;20054;-43
2022/10/20 06:04:22;;;;;;;0.00;0.00;;;;;;;10.75;100.00;99909.22;5003949;28;20049;-41
2022/10/20 06:06:50;;;;;;;0.00;0.00;;;;;;;10.74;100.00;99927.78;5028538;28;20049;-41
2022/10/20 06:09:17;;;;;;;0.00;0.00;;;;;;;10.75;100.00;99931.34;5020405;28;20052;-41
2022/10/20 06:11:44;;;;;;;0.00;0.00;;;;;;;10.75;100.00;99940.44;4988624;28;20096;-42
2022/10/20 06:14:10;;;;;;;0.00;0.00;;;;;;;10.76;100.00;99938.47;4984074;28;20049;-41
2022/10/20 06:16:37;;;;;;;0.00;0.00;;;;;;;10.77;100.00;99932.59;4983544;28;20053;-42
2022/10/20 06:19:06;;;;;;;0.05;0.05;;;;;;;10.80;100.00;99937.38;4983610;28;20057;-46
2022/10/20 06:21:33;;;;;;;0.00;0.00;;;;;;;10.83;100.00;99930.28;4993099;28;20068;-43
2022/10/20 06:24:03;;;;;;;0.00;0.00;;;;;;;10.85;100.00;99928.00;4986145;28;20049;-45
2022/10/20 06:26:32;;;;;;;0.00;0.00;;;;;;;10.91;100.00;99919.00;4985456;28;20123;-43
2022/10/20 06:28:59;;;;;;;0.00;0.00;;;;;;;10.98;100.00;99910.03;4985979;28;20708;-43
2022/10/20 06:31:32;;;;;;;0.00;0.00;;;;;;;11.02;100.00;99913.66;5020603;28;20611;-42
2022/10/20 06:34:00;;;;;;;0.00;0.00;;;;;;;11.04;100.00;99900.22;5023218;28;20048;-44
2022/10/20 06:36:27;;;;;;;0.00;0.00;;;;;;;11.05;100.00;99904.59;5028445;28;20072;-40
2022/10/20 06:38:57;;;;;;;0.00;0.00;;;;;;;11.02;100.00;99894.25;4992449;28;20053;-44
2022/10/20 06:41:26;;;;;;;0.00;0.00;;;;;;;11.02;100.00;99883.19;4995759;28;20056;-41
2022/10/20 06:43:57;;;;;;;0.00;0.00;;;;;;;11.00;100.00;99882.75;5000667;28;20096;-45
2022/10/20 06:46:27;;;;;;;0.00;0.00;;;;;;;10.98;100.00;99880.38;4998097;28;20558;-43
2022/10/20 06:48:54;;;;;;;0.00;0.00;;;;;;;10.95;100.00;99889.41;5010001;28;20124;-43
2022/10/20 06:51:24;;;;;;;0.00;0.00;;;;;;;10.93;100.00;99885.41;5029746;28;20041;-40
2022/10/20 06:53:51;;;;;;;1.50;0.85;;;;;;;10.91;100.00;99887.72;5013380;28;20148;-44
2022/10/20 06:56:24;;;;;;;0.00;0.00;;;;;;;10.86;100.00;99880.53;5006261;28;20506;-40
2022/10/20 06:58:53;;;;;;;0.00;0.00;;;;;;;10.84;100.00;99890.38;5031553;28;20285;-49
2022/10/20 07:01:22;;;;;;;0.00;0.00;;;;;;;10.80;100.00;99897.84;5027668;28;20092;-42
2022/10/20 07:03:53;;;;;;;0.00;0.00;;;;;;;10.76;100.00;99897.75;5031096;28;20104;-41
2022/10/20 07:06:22;;;;;;;0.08;0.08;;;;;;;10.75;100.00;99904.44;5031724;28;20399;-41
2022/10/20 07:08:58;;;;;;;0.10;0.10;;;;;;;10.76;100.00;99919.09;5031836;28;20045;-40
2022/10/20 07:11:28;;;;;;;0.00;0.00;;;;;;;10.75;100.00;99911.97;5031520;28;20457;-42
2022/10/20 07:13:57;;;;;;;0.00;0.00;;;;;;;10.74;100.00;99915.91;5031867;28;20048;-40
2022/10/20 07:16:25;;;;;;;0.00;0.00;;;;;;;10.73;100.00;99908.75;5027143;28;20448;-42
2022/10/20 07:18:52;;;;;;;0.00;0.00;;;;;;;10.72;100.00;99904.41;5017807;28;20049;-40
2022/10/20 07:21:21;;;;;;;0.00;0.00;;;;;;;10.73;100.00;99912.31;5024317;28;20495;-40
2022/10/20 07:23:49;;;;;;;0.00;0.00;;;;;;;10.77;100.00;99918.75;5018539;28;20082;-45
2022/10/20 07:26:19;;;;;;;0.03;0.03;;;;;;;10.81;100.00;99904.94;4986001;28;20175;-43
2022/10/20 07:28:50;;;;;;;0.00;0.00;;;;;;;10.86;100.00;99901.88;4986636;28;20748;-43
2022/10/20 07:31:24;;;;;;;0.00;0.00;;;;;;;10.91;100.00;99896.03;4979233;28;20879;-41
2022/10/20 07:33:51;;;;;;;0.00;0.00;;;;;;;10.99;100.00;99898.56;4987111;28;20403;-43
2022/10/20 07:36:41;;;;;;;0.00;0.00;;;;;;;11.06;100.00;99881.28;5000844;28;20054;-42
2022/10/20 07:39:10;;;;;;;0.00;0.00;;;;;;;11.13;100.00;99892.47;5024922;28;20052;-41
2022/10/20 07:41:38;;;;;;;0.00;0.00;;;;;;;11.20;100.00;99883.50;5031265;28;20096;-41
2022/10/20 07:44:06;;;;;;;0.00;0.00;;;;;;;11.22;100.00;99889.47;5031340;28;20095;-40
2022/10/20 07:46:32;;;;;;;0.00;0.00;;;;;;;11.26;100.00;99895.88;5017708;28;20064;-40
2022/10/20 07:48:59;;;;;;;0.00;0.00;;;;;;;11.29;100.00;99907.00;5030654;28;20132;-40
2022/10/20 07:51:46;;;;;;;0.00;0.00;;;;;;;11.33;100.00;99899.56;5015930;28;20095;-41
2022/10/20 07:54:13;;;;;;;0.00;0.00;;;;;;;11.34;100.00;99901.16;5010085;28;20063;-40
2022/10/20 07:56:41;;;;;;;0.00;0.00;;;;;;;11.38;100.00;99915.09;5022850;28;20037;-40
2022/10/20 07:59:09;;;;;;;0.00;0.00;;;;;;;11.42;100.00;99913.16;5016652;28;20056;-40
2022/10/20 08:01:36;;;;;;;0.00;0.00;;;;;;;11.44;100.00;99916.34;5025330;28;20049;-40
2022/10/20 08:04:03;;;;;;;0.00;0.00;;;;;;;11.45;100.00;99918.78;5005689;28;20499;-40
2022/10/20 08:06:30;;;;;;;0.00;0.00;;;;;;;11.49;100.00;99927.94;5029636;28;20399;-47
2022/10/20 08:08:59;;;;;;;0.00;0.00;;;;;;;11.55;100.00;99923.69;5003907;28;20064;-40
2022/10/20 08:11:26;;;;;;;0.00;0.00;;;;;;;11.59;100.00;99919.00;5030994;28;20115;-40
2022/10/20 08:13:52;;;;;;;0.00;0.00;;;;;;;11.65;100.00;99911.16;5025521;28;20168;-40
2022/10/20 08:16:20;;;;;;;0.00;0.00;;;;;;;11.70;100.00;99921.97;5013279;28;20412;-41
2022/10/20 08:19:07;;;;;;;0.00;0.00;;;;;;;11.72;100.00;99914.09;4990877;28;20054;-41
2022/10/20 08:21:53;;;;;;;0.00;0.00;;;;;;;11.78;100.00;99914.56;5020107;28;20073;-40
2022/10/20 08:24:20;;;;;;;0.00;0.00;;;;;;;11.84;100.00;99910.28;5012395;28;20141;-49
2022/10/20 08:26:47;;;;;;;0.00;0.00;;;;;;;11.91;100.00;99913.19;5022974;28;20049;-40
2022/10/20 08:29:13;;;;;;;0.00;0.00;;;;;;;11.96;100.00;99904.53;5022368;28;20056;-40
2022/10/20 08:31:42;;;;;;;0.00;0.00;;;;;;;11.99;100.00;99910.09;5030108;28;20042;-40
2022/10/20 08:34:09;;;;;;;0.00;0.00;;;;;;;12.01;100.00;99906.97;5024617;28;20042;-40
2022/10/20 08:36:36;;;;;;;0.00;0.00;;;;;;;12.01;100.00;99893.09;5027554;28;20053;-42
2022/10/20 08:39:03;;;;;;;0.00;0.00;;;;;;;12.02;100.00;99901.03;5011131;28;20060;-43
2022/10/20 08:41:38;;;;;;;0.00;0.00;;;;;;;12.03;100.00;99904.63;5026925;28;20049;-40
2022/10/20 08:44:34;;;;;;;0.00;0.00;;;;;;;12.03;100.00;99916.53;5016145;28;20069;-41
2022/10/20 08:47:03;;;;;;;0.00;0.00;;;;;;;12.02;100.00;99909.38;5011313;28;20045;-42
2022/10/20 08:49:33;;;;;;;0.00;0.00;;;;;;;12.05;100.00;99913.34;5022819;28;20391;-41
2022/10/20 08:52:01;;;;;;;0.00;0.00;;;;;;;12.08;100.00;99907.06;4997786;28;20076;-40
2022/10/20 08:54:31;;;;;;;0.00;0.00;;;;;;;12.10;100.00;99904.72;5025061;28;20049;-44
2022/10/20 08:56:57;;;;;;;0.00;0.00;;;;;;;12.10;100.00;99899.97;5021711;28;20042;-40
2022/10/20 08:59:31;;;;;;;0.00;0.00;;;;;;;12.11;100.00;99896.03;5017889;28;20495;-43
2022/10/20 09:01:59;;;;;;;0.00;0.00;;;;;;;12.15;100.00;99896.09;5011855;28;20057;-40
2022/10/20 09:04:34;;;;;;;0.00;0.00;;;;;;;12.17;100.00;99904.81;5022920;28;20057;-40
2022/10/20 09:07:09;;;;;;;0.00;0.00;;;;;;;12.22;100.00;99907.25;5023042;28;20042;-43
2022/10/20 09:09:36;;;;;;;0.00;0.00;;;;;;;12.26;100.00;99897.00;5029628;28;20064;-42
2022/10/20 09:12:06;;;;;;;0.00;0.00;;;;;;;12.31;100.00;99893.09;5015227;28;20075;-41
2022/10/20 09:14:35;;;;;;;0.00;0.00;;;;;;;12.35;100.00;99894.75;5013432;28;20061;-40
2022/10/20 09:17:04;;;;;;;0.00;0.00;;;;;;;12.41;100.00;99892.44;5021576;28;20056;-43
2022/10/20 09:19:35;;;;;;;0.00;0.00;;;;;;;12.44;100.00;99886.13;5021596;28;20045;-41
2022/10/20 09:22:05;;;;;;;0.00;0.00;;;;;;;12.47;100.00;99891.72;5009177;28;20131;-41
2022/10/20 09:24:34;;;;;;;0.00;0.00;;;;;;;12.51;100.00;99881.47;5021645;28;20038;-40
2022/10/20 09:27:16;;;;;;;0.00;0.00;;;;;;;12.58;100.00;99881.53;5028399;28;20103;-49
2022/10/20 09:29:44;;;;;;;0.00;0.00;;;;;;;12.61;100.00;99880.78;5025001;28;20037;-42
2022/10/20 09:32:33;;;;;;;0.00;0.00;;;;;;;12.66;100.00;99880.44;5022827;28;20058;-45
2022/10/20 09:35:35;;;;;;;0.00;0.00;;;;;;;12.71;100.00;99885.66;5023566;28;20045;-41
2022/10/20 09:38:15;;;;;;;0.30;0.30;;;;;;;12.73;100.00;99869.38;5015045;28;20049;-41
2022/10/20 09:40:53;;;;;;;0.00;0.00;;;;;;;12.78;100.00;99863.53;5027300;28;20041;-44
2022/10/20 09:43:20;;;;;;;0.00;0.00;;;;;;;12.83;100.00;99865.94;5020603;28;20033;-41
2022/10/20 09:46:02;;;;;;;0.00;0.00;;;;;;;12.90;100.00;99867.19;5013766;28;20050;-40
2022/10/20 09:48:34;;;;;;;0.00;0.00;;;;;;;12.90;100.00;99865.19;5008079;28;20141;-40
2022/10/20 09:51:01;;;;;;;0.00;0.00;;;;;;;12.90;100.00;99858.84;5025971;28;20450;-40
2022/10/20 09:53:37;;;;;;;0.00;0.00;;;;;;;12.92;100.00;99864.84;5028948;28;20052;-41
2022/10/20 09:56:04;;;;;;;0.00;0.00;;;;;;;12.97;100.00;99853.38;5028865;28;20041;-41
2022/10/20 09:58:36;;;;;;;0.00;0.00;;;;;;;13.02;100.00;99862.16;5029049;28;20526;-40
2022/10/20 10:01:13;;;;;;;0.00;0.00;;;;;;;13.08;100.00;99857.09;5028419;28;20095;-41
2022/10/20 10:03:50;;;;;;;0.20;0.20;;;;;;;13.13;100.00;99859.50;5016056;28;20488;-41
2022/10/20 10:06:27;;;;;;;0.00;0.00;;;;;;;13.17;100.00;99863.09;5025640;28;20562;-41
2022/10/20 10:08:55;;;;;;;0.10;0.10;;;;;;;13.21;100.00;99869.50;5020477;28;20046;-40
2022/10/20 10:11:28;;;;;;;0.00;0.00;;;;;;;13.28;100.00;99861.22;5027366;28;20132;-41
2022/10/20 10:13:54;;;;;;;0.00;0.00;;;;;;;13.34;100.00;99868.03;5028123;28;20495;-40
2022/10/20 10:16:25;;;;;;;1.02;0.73;;;;;;;13.41;100.00;99863.31;5028808;28;20045;-43
2022/10/20 10:19:00;;;;;;;0.35;0.30;;;;;;;13.48;100.00;99857.00;5028551;28;20085;-40
2022/10/20 10:21:29;;;;;;;0.00;0.00;;;;;;;13.54;100.00;99863.81;5028581;28;20112;-40
2022/10/20 10:23:59;;;;;;;0.00;0.00;;;;;;;13.62;100.00;99859.88;5021081;28;20050;-41
2022/10/20 10:26:52;;;;;;;0.00;0.00;;;;;;;13.70;100.00;99855.97;5028880;28;20484;-43
2022/10/20 10:29:25;;;;;;;0.17;0.17;;;;;;;13.79;100.00;99850.84;5028610;28;20053;-41
2022/10/20 10:32:16;;;;;;;0.00;0.00;;;;;;;13.87;100.00;99858.03;5028554;28;20046;-41
2022/10/20 10:35:10;;;;;;;7.32;0.88;;;;;;;13.91;100.00;99855.31;5015507;28;20057;-41
2022/10/20 10:37:40;;;;;;;0.00;0.00;;;;;;;13.92;100.00;99854.94;5028439;28;20061;-40
2022/10/20 10:40:17;;;;;;;0.00;0.00;;;;;;;13.92;100.00;99854.94;5026540;28;20069;-40
2022/10/20 10:43:23;;;;;;;0.00;0.00;;;;;;;13.93;100.00;99853.72;5028545;28;20049;-41
2022/10/20 10:46:03;;;;;;;5.95;1.65;;;;;;;13.93;100.00;99839.81;5028338;28;20040;-42
2022/10/20 10:48:54;;;;;;;0.00;0.00;;;;;;;13.94;100.00;99844.19;5028579;28;20426;-42
2022/10/20 10:51:43;;;;;;;0.00;0.00;;;;;;;14.00;100.00;99839.06;5028551;28;20051;-41
2022/10/20 10:54:28;;;;;;;0.00;0.00;;;;;;;14.01;100.00;99841.44;5019998;28;20381;-42
2022/10/20 10:57:03;;;;;;;2.03;0.98;;;;;;;14.03;100.00;99838.28;5011595;28;20033;-41
2022/10/20 10:59:42;;;;;;;0.00;0.00;;;;;;;14.04;100.00;99834.28;5028389;28;20068;-40
2022/10/20 11:02:27;;;;;;;0.00;0.00;;;;;;;14.07;100.00;99835.50;5017540;28;20050;-41
2022/10/20 11:04:54;;;;;;;0.00;0.00;;;;;;;14.09;100.00;99828.34;5028177;28;20502;-46
2022/10/20 11:07:26;;;;;;;0.00;0.00;;;;;;;14.11;100.00;99816.84;5023473;28;20041;-41
2022/10/20 11:09:59;;;;;;;0.00;0.00;;;;;;;14.17;100.00;99823.59;5024581;28;20093;-40
2022/10/20 11:12:56;;;;;;;0.00;0.00;;;;;;;14.23;100.00;99820.06;5027831;28;20049;-40
2022/10/20 11:16:00;;;;;;;0.00;0.00;;;;;;;14.32;100.00;99812.16;5017647;28;20053;-41
2022/10/20 11:18:36;;;;;;;0.00;0.00;;;;;;;14.39;100.00;99816.97;5005547;28;20934;-40
2022/10/20 11:21:31;;;;;;;0.00;0.00;;;;;;;14.38;100.00;99815.38;5018083;28;20069;-41
2022/10/20 11:24:07;;;;;;;0.00;0.00;;;;;;;14.37;100.00;99803.44;5002410;28;20495;-38
2022/10/20 11:26:39;;;;;;;0.00;0.00;;;;;;;14.41;100.00;99809.00;5028471;28;20049;-39
2022/10/20 11:29:20;;;;;;;0.00;0.00;;;;;;;14.47;100.00;99813.81;5028279;28;20053;-39
2022/10/20 11:32:21;;;;;;;0.00;0.00;;;;;;;14.47;100.00;99808.25;5015132;28;20115;-39
2022/10/20 11:35:03;;;;;;;0.00;0.00;;;;;;;14.57;100.00;99795.53;5016767;28;20041;-40
2022/10/20 11:38:04;;;;;;;0.00;0.00;;;;;;;14.70;100.00;99799.53;5025708;28;20044;-38
2022/10/20 11:40:38;;;;;;;0.00;0.00;;;;;;;14.80;100.00;99809.13;5029902;28;20510;-38
2022/10/20 11:43:19;;;;;;;0.00;0.00;;;;;;;14.92;100.00;99801.16;5031011;28;20128;-38
2022/10/20 11:46:02;;;;;;;0.00;0.00;;;;;;;15.04;100.00;99795.16;5030988;28;20107;-39